Time;durP1;ratioP1;P1;durP2;ratioP2;P2;SDS_P1;SDS_P2;PMS_P1;PMS_P2;Temp;Humidity;BMP_temperature;BMP_pressure;BME280_temperature;BME280_humidity;BME280_pressure;Samples;Min_cycle;Max_cycle;Signal;HPM_P1;HPM_P2
2022/08/07 00:01:48;;;;;;;5.63;4.63;;;;;;;29.77;37.62;100704.44;5046395;28;20811;-64
2022/08/07 00:04:13;;;;;;;6.07;4.53;;;;;;;29.76;37.63;100713.72;5044652;28;20402;-64
2022/08/07 00:06:39;;;;;;;7.27;4.83;;;;;;;29.72;37.60;100714.28;5062685;28;20921;-66
2022/08/07 00:09:04;;;;;;;8.93;4.95;;;;;;;29.71;37.68;100718.13;5063494;28;20741;-64
2022/08/07 00:11:30;;;;;;;7.43;4.57;;;;;;;29.65;37.34;100721.25;5049653;28;20408;-65
2022/08/07 00:14:02;;;;;;;6.57;4.40;;;;;;;29.62;37.08;100732.75;5106523;27;20404;-65
2022/08/07 00:16:28;;;;;;;6.47;4.53;;;;;;;29.57;36.74;100735.56;5091811;28;20425;-65
2022/08/07 00:18:55;;;;;;;5.50;4.30;;;;;;;29.53;36.70;100729.88;5084532;28;20404;-65
2022/08/07 00:21:20;;;;;;;5.25;4.47;;;;;;;29.51;36.95;100734.84;5086172;28;20421;-65
2022/08/07 00:23:46;;;;;;;6.47;4.55;;;;;;;29.51;37.55;100732.94;5087447;28;20390;-65
2022/08/07 00:26:11;;;;;;;5.22;4.50;;;;;;;29.48;37.80;100722.59;5087516;28;20435;-64
2022/08/07 00:28:37;;;;;;;6.07;4.67;;;;;;;29.41;38.33;100730.34;5084628;28;20400;-64
2022/08/07 00:31:10;;;;;;;9.77;5.05;;;;;;;29.31;38.59;100742.22;5087060;28;20730;-64
2022/08/07 00:33:37;;;;;;;6.43;4.97;;;;;;;29.21;38.95;100752.47;5087034;28;20426;-65
2022/08/07 00:36:03;;;;;;;6.25;4.80;;;;;;;29.10;38.90;100738.13;5087043;28;20366;-64
2022/08/07 00:38:29;;;;;;;8.38;5.30;;;;;;;29.03;38.67;100749.44;5086670;28;20370;-64
2022/08/07 00:40:54;;;;;;;6.47;5.55;;;;;;;28.98;39.03;100750.31;5086802;28;20816;-64
2022/08/07 00:43:20;;;;;;;9.30;6.18;;;;;;;29.01;39.08;100754.38;5086849;28;20440;-64
2022/08/07 00:45:47;;;;;;;8.02;6.15;;;;;;;28.92;39.08;100753.41;5086563;28;20884;-65
2022/08/07 00:48:13;;;;;;;9.70;6.40;;;;;;;28.83;38.96;100755.97;5086070;28;20880;-67
2022/08/07 00:50:39;;;;;;;8.25;6.45;;;;;;;28.72;38.88;100751.72;5085838;28;20427;-64
2022/08/07 00:55:17;;;;;;;6.80;5.53;;;;;;;28.78;38.74;100759.56;5106736;27;20401;-65
2022/08/07 00:57:43;;;;;;;7.87;5.60;;;;;;;28.73;39.01;100777.91;5107383;28;20380;-65
2022/08/07 01:00:09;;;;;;;8.37;6.13;;;;;;;28.72;39.15;100770.81;5106532;28;20376;-65
2022/08/07 01:02:35;;;;;;;7.30;5.40;;;;;;;28.71;39.03;100774.66;5107004;28;20404;-66
2022/08/07 01:05:05;;;;;;;10.77;5.47;;;;;;;28.62;39.42;100770.94;5107474;28;20791;-65
2022/08/07 01:07:31;;;;;;;6.90;5.30;;;;;;;28.54;39.56;100773.22;5107790;28;20906;-65
2022/08/07 01:09:57;;;;;;;9.65;5.85;;;;;;;28.47;39.74;100782.78;5107268;28;20475;-64
2022/08/07 01:12:22;;;;;;;6.10;5.50;;;;;;;28.47;40.09;100777.31;5107446;28;20805;-65
2022/08/07 01:14:48;;;;;;;5.90;5.13;;;;;;;28.42;40.18;100789.91;5107285;28;20452;-65
2022/08/07 01:17:14;;;;;;;10.25;5.70;;;;;;;28.36;40.60;100788.38;5107520;28;20376;-65
2022/08/07 01:20:08;;;;;;;8.48;5.57;;;;;;;28.32;40.97;100791.94;5085833;28;20826;-64
2022/08/07 01:22:35;;;;;;;6.05;5.45;;;;;;;28.21;41.24;100791.22;5086823;28;20410;-66
2022/08/07 01:25:02;;;;;;;7.90;5.72;;;;;;;28.30;40.96;100799.59;5087291;28;20934;-65
2022/08/07 01:27:27;;;;;;;8.27;5.88;;;;;;;28.26;41.46;100796.63;5086924;28;20767;-64
2022/08/07 01:30:56;;;;;;;7.00;5.50;;;;;;;28.26;41.69;100793.91;5106663;27;20453;-66
2022/08/07 01:33:23;;;;;;;8.73;5.70;;;;;;;28.23;42.07;100783.56;5107803;28;21080;-64
2022/08/07 01:35:50;;;;;;;8.13;5.90;;;;;;;28.29;42.03;100795.22;5107452;28;20747;-65
2022/08/07 01:38:16;;;;;;;9.95;6.40;;;;;;;28.25;42.08;100783.28;5107860;28;20413;-65
2022/08/07 01:41:38;;;;;;;8.10;5.85;;;;;;;28.18;42.30;100792.63;5066194;28;20926;-64
2022/08/07 01:44:04;;;;;;;7.60;5.55;;;;;;;28.16;42.33;100786.66;5067264;28;20400;-64
2022/08/07 01:46:29;;;;;;;6.97;5.70;;;;;;;28.18;42.19;100789.91;5067082;28;20453;-64
2022/08/07 01:48:55;;;;;;;6.13;5.53;;;;;;;28.25;42.37;100789.53;5066795;28;20372;-64
2022/08/07 01:51:25;;;;;;;6.43;5.83;;;;;;;28.23;42.52;100789.00;5066273;28;20877;-65
2022/08/07 01:55:35;;;;;;;6.13;5.35;;;;;;;28.22;42.71;100799.13;5086408;27;20925;-64
2022/08/07 01:58:07;;;;;;;7.35;5.65;;;;;;;28.21;42.76;100799.41;5087365;28;20485;-65
2022/08/07 02:00:35;;;;;;;9.13;5.67;;;;;;;28.24;42.78;100807.00;5087079;28;20960;-71
2022/08/07 02:03:08;;;;;;;8.77;6.00;;;;;;;28.32;42.44;100816.47;5087033;28;20378;-65
2022/08/07 02:05:39;;;;;;;9.17;6.00;;;;;;;28.25;43.01;100808.63;5086939;28;20382;-64
2022/08/07 02:08:09;;;;;;;9.70;6.10;;;;;;;28.25;42.75;100816.00;5085985;28;20803;-64
2022/08/07 02:10:37;;;;;;;6.28;5.68;;;;;;;28.21;43.05;100807.56;5086900;28;20390;-64
2022/08/07 02:13:04;;;;;;;6.78;5.90;;;;;;;28.24;43.02;100808.94;5087064;28;20433;-65
2022/08/07 02:17:04;;;;;;;7.13;6.00;;;;;;;28.31;42.73;100814.88;5106671;27;20404;-64
2022/08/07 02:19:30;;;;;;;6.95;6.00;;;;;;;28.38;42.63;100809.88;5108407;28;20396;-64
2022/08/07 02:21:56;;;;;;;8.43;6.15;;;;;;;28.36;42.58;100810.16;5107685;28;20805;-64
2022/08/07 02:24:22;;;;;;;9.45;5.80;;;;;;;28.33;42.97;100818.91;5107544;28;20415;-64
2022/08/07 02:26:49;;;;;;;7.93;6.20;;;;;;;28.37;42.78;100817.22;5107846;28;20430;-64
2022/08/07 02:29:15;;;;;;;8.30;6.10;;;;;;;28.45;42.67;100817.72;5107359;28;20467;-64
2022/08/07 02:31:42;;;;;;;7.18;6.28;;;;;;;28.47;42.62;100821.78;5107225;28;20377;-63
2022/08/07 02:34:08;;;;;;;6.67;5.90;;;;;;;28.48;42.52;100825.31;5107473;28;20412;-64
2022/08/07 02:36:37;;;;;;;8.73;5.93;;;;;;;28.45;42.54;100829.44;5107052;28;20416;-64
2022/08/07 02:39:04;;;;;;;8.60;5.95;;;;;;;28.43;42.71;100831.63;5107682;28;20416;-64
2022/08/07 02:41:31;;;;;;;7.70;5.88;;;;;;;28.41;42.53;100837.41;5107153;28;20428;-64
2022/08/07 02:43:59;;;;;;;10.18;5.80;;;;;;;28.38;43.04;100834.44;5107019;28;20381;-64
2022/08/07 02:46:48;;;;;;;9.07;5.80;;;;;;;28.37;42.73;100830.88;5054299;28;20419;-65
2022/08/07 02:49:14;;;;;;;8.60;6.07;;;;;;;28.39;42.98;100833.31;5047322;28;20485;-65
2022/08/07 02:51:40;;;;;;;9.37;6.20;;;;;;;28.38;42.72;100839.88;5047150;28;20473;-65
2022/08/07 02:54:08;;;;;;;8.70;6.22;;;;;;;28.42;42.74;100835.47;5046935;28;20428;-65
2022/08/07 02:56:38;;;;;;;7.00;6.30;;;;;;;28.35;43.16;100833.06;5047114;28;20432;-66
2022/08/07 02:59:10;;;;;;;6.43;5.82;;;;;;;28.38;42.85;100845.34;5047043;28;20872;-64
2022/08/07 03:02:40;;;;;;;8.18;6.38;;;;;;;28.22;43.32;100845.44;5106803;27;20400;-65
2022/08/07 03:05:07;;;;;;;6.85;6.05;;;;;;;28.11;43.43;100854.81;5107735;28;20400;-65
2022/08/07 03:07:33;;;;;;;10.95;6.65;;;;;;;28.00;43.22;100839.63;5107046;28;20380;-65
2022/08/07 03:10:00;;;;;;;8.00;6.25;;;;;;;27.84;43.39;100845.16;5107663;28;20373;-64
2022/08/07 03:12:27;;;;;;;8.05;6.00;;;;;;;27.84;43.47;100847.09;5107664;28;20471;-64
2022/08/07 03:14:55;;;;;;;8.70;6.35;;;;;;;27.84;43.14;100853.34;5108098;28;20791;-64
2022/08/07 03:17:21;;;;;;;9.73;6.53;;;;;;;27.80;43.42;100863.19;5107494;28;20456;-65
2022/08/07 03:19:48;;;;;;;8.27;6.32;;;;;;;27.67;43.12;100865.72;5107221;28;20388;-64
2022/08/07 03:22:15;;;;;;;8.82;6.32;;;;;;;27.54;43.57;100875.31;5107354;28;20420;-66
2022/08/07 03:24:41;;;;;;;8.48;6.35;;;;;;;27.57;43.38;100864.66;5107090;28;20384;-64
2022/08/07 03:27:06;;;;;;;8.90;6.20;;;;;;;27.45;43.46;100873.16;5107377;28;20746;-64
2022/08/07 03:29:46;;;;;;;8.77;6.60;;;;;;;27.37;44.15;100870.19;5107005;28;20819;-65
2022/08/07 03:32:14;;;;;;;10.95;7.30;;;;;;;27.35;44.20;100869.66;5107227;28;20388;-64
2022/08/07 03:34:42;;;;;;;12.75;6.90;;;;;;;27.29;44.22;100858.00;5106822;28;20890;-65
2022/08/07 03:37:09;;;;;;;11.30;6.78;;;;;;;27.34;44.11;100846.28;5106788;28;20374;-64
2022/08/07 03:39:37;;;;;;;8.50;6.50;;;;;;;27.37;44.20;100857.41;5106964;28;20387;-64
2022/08/07 03:42:04;;;;;;;8.48;6.30;;;;;;;27.43;44.23;100858.22;5106880;28;20990;-65
2022/08/07 03:44:34;;;;;;;6.72;6.13;;;;;;;27.33;44.69;100852.81;5107018;28;20425;-64
2022/08/07 03:47:01;;;;;;;7.20;6.28;;;;;;;27.25;45.01;100859.63;5106754;28;20425;-65
2022/08/07 03:49:27;;;;;;;7.63;6.53;;;;;;;27.26;44.67;100856.66;5106695;28;20433;-64
2022/08/07 03:51:55;;;;;;;8.10;6.13;;;;;;;27.27;44.50;100855.53;5107175;28;20384;-64
2022/08/07 03:54:21;;;;;;;8.25;6.40;;;;;;;27.29;44.53;100849.81;5106779;28;20369;-65
2022/08/07 03:56:48;;;;;;;7.63;6.15;;;;;;;27.32;44.61;100849.28;5106808;28;20376;-64
2022/08/07 03:59:14;;;;;;;7.97;6.20;;;;;;;27.41;44.52;100844.06;5106652;28;20420;-64
2022/08/07 04:01:42;;;;;;;9.95;6.28;;;;;;;27.55;44.48;100855.13;5092485;28;20912;-64
2022/08/07 04:04:08;;;;;;;8.38;5.80;;;;;;;27.62;44.14;100847.47;5086159;28;20379;-65
2022/08/07 04:06:35;;;;;;;8.48;5.88;;;;;;;27.71;44.27;100856.66;5086208;28;20378;-64
2022/08/07 04:09:02;;;;;;;8.07;5.73;;;;;;;27.77;43.67;100855.56;5085885;28;20880;-63
2022/08/07 04:11:28;;;;;;;8.23;5.80;;;;;;;27.82;43.60;100847.38;5085788;28;20385;-63
2022/08/07 04:13:55;;;;;;;9.52;6.25;;;;;;;27.90;43.67;100847.84;5073113;28;20371;-64
2022/08/07 04:16:22;;;;;;;8.70;5.63;;;;;;;27.94;43.69;100859.84;5072532;28;20379;-64
2022/08/07 04:18:48;;;;;;;7.57;6.03;;;;;;;27.96;43.56;100855.72;5072249;28;20370;-63
2022/08/07 04:21:13;;;;;;;8.30;6.03;;;;;;;28.06;43.64;100859.50;5071167;28;20414;-63
2022/08/07 04:23:40;;;;;;;9.48;5.93;;;;;;;28.09;43.57;100867.91;5072384;28;20385;-63
2022/08/07 04:26:06;;;;;;;8.63;6.10;;;;;;;28.16;43.20;100871.13;5072751;28;20462;-63
2022/08/07 04:28:32;;;;;;;7.60;6.25;;;;;;;28.14;43.10;100869.78;5072259;28;20380;-64
2022/08/07 04:30:58;;;;;;;8.80;6.30;;;;;;;28.10;42.93;100877.72;5072610;28;20383;-63
2022/08/07 04:33:26;;;;;;;9.15;6.97;;;;;;;28.12;42.98;100871.97;5072283;28;20469;-63
2022/08/07 04:35:52;;;;;;;9.05;6.30;;;;;;;28.19;42.88;100884.19;5072226;28;20379;-64
2022/08/07 04:38:18;;;;;;;10.00;6.35;;;;;;;28.19;42.42;100889.63;5071885;28;20907;-64
2022/08/07 04:40:45;;;;;;;7.60;5.90;;;;;;;28.22;42.16;100894.53;5069547;28;20419;-64
2022/08/07 04:43:13;;;;;;;9.50;5.75;;;;;;;28.21;42.21;100897.53;5069548;28;20780;-65
2022/08/07 04:46:04;;;;;;;8.18;6.18;;;;;;;28.17;42.06;100904.66;5068590;28;20491;-64
2022/08/07 04:48:53;;;;;;;7.72;6.05;;;;;;;28.07;42.36;100896.53;5070915;28;20398;-65
2022/08/07 04:51:44;;;;;;;6.60;6.00;;;;;;;27.96;42.64;100891.16;5051655;28;20373;-64
2022/08/07 04:54:26;;;;;;;6.72;6.13;;;;;;;27.93;42.78;100894.47;5051849;28;20381;-63
2022/08/07 04:57:03;;;;;;;6.72;6.13;;;;;;;27.92;42.88;100901.00;5051596;28;20373;-65
2022/08/07 05:00:09;;;;;;;13.52;7.57;;;;;;;27.92;43.11;100901.00;5065715;28;20406;-64
2022/08/07 05:02:45;;;;;;;13.52;8.07;;;;;;;28.01;43.13;100903.94;5028120;28;20422;-63
2022/08/07 05:05:29;;;;;;;15.18;8.13;;;;;;;28.05;42.93;100906.91;5029218;28;20390;-64
2022/08/07 05:07:59;;;;;;;11.45;7.72;;;;;;;28.07;43.11;100908.25;5051704;28;20495;-65
2022/08/07 05:10:50;;;;;;;8.80;7.18;;;;;;;28.11;42.97;100917.50;5071152;28;20394;-64
2022/08/07 05:13:20;;;;;;;7.30;6.33;;;;;;;28.18;43.00;100918.00;5069998;28;20408;-63
2022/08/07 05:15:49;;;;;;;9.25;5.75;;;;;;;28.28;43.01;100922.56;5070130;28;20406;-64
2022/08/07 05:18:22;;;;;;;6.30;5.70;;;;;;;28.27;42.68;100922.84;5070237;28;20486;-64
2022/08/07 05:20:53;;;;;;;5.78;5.28;;;;;;;28.27;43.13;100928.28;5071284;28;20411;-64
2022/08/07 05:23:32;;;;;;;8.43;5.88;;;;;;;28.24;43.04;100917.97;5071347;28;20415;-64
2022/08/07 05:26:00;;;;;;;7.53;5.82;;;;;;;28.31;42.81;100918.47;5070539;28;20458;-63
2022/08/07 05:28:26;;;;;;;9.40;5.97;;;;;;;28.45;42.82;100922.16;5070010;28;21277;-63
2022/08/07 05:30:54;;;;;;;6.75;6.13;;;;;;;28.55;42.67;100924.81;5069875;28;20398;-64
2022/08/07 05:33:21;;;;;;;10.02;6.63;;;;;;;28.58;42.55;100918.00;5071041;28;20474;-63
2022/08/07 05:35:50;;;;;;;10.27;6.27;;;;;;;28.66;42.61;100928.28;5069698;28;20390;-64
2022/08/07 05:38:16;;;;;;;7.22;6.20;;;;;;;28.79;42.39;100926.78;5071022;28;20474;-64
2022/08/07 05:40:43;;;;;;;7.50;6.80;;;;;;;28.90;42.16;100925.59;5066675;28;20830;-64
2022/08/07 05:43:08;;;;;;;7.45;6.75;;;;;;;29.01;42.05;100933.66;5060615;28;20390;-64
2022/08/07 05:45:34;;;;;;;11.20;7.33;;;;;;;29.12;41.66;100929.75;5057213;28;20394;-64
2022/08/07 05:48:02;;;;;;;10.73;7.18;;;;;;;29.24;41.59;100934.81;5058202;28;20440;-63
2022/08/07 05:50:30;;;;;;;9.65;7.25;;;;;;;29.38;41.25;100935.75;5055115;28;20466;-64
2022/08/07 05:52:56;;;;;;;8.43;6.97;;;;;;;29.51;41.00;100945.16;5056858;28;20382;-63
2022/08/07 05:55:23;;;;;;;7.85;7.05;;;;;;;29.63;40.72;100951.00;5056142;28;20384;-65
2022/08/07 05:57:49;;;;;;;9.88;7.70;;;;;;;29.78;40.35;100947.28;5060573;28;20436;-64
2022/08/07 06:00:16;;;;;;;12.05;7.40;;;;;;;29.84;40.28;100951.59;5055901;28;20537;-64
2022/08/07 06:02:46;;;;;;;10.82;8.05;;;;;;;30.04;39.50;100961.44;5057350;28;20406;-64
2022/08/07 06:05:13;;;;;;;10.87;7.97;;;;;;;30.24;38.87;100963.03;5053245;28;20388;-64
2022/08/07 06:07:39;;;;;;;10.43;7.75;;;;;;;30.52;38.30;100954.97;5054520;28;20392;-64
2022/08/07 06:10:05;;;;;;;9.10;7.87;;;;;;;30.95;37.56;100957.53;5056293;28;20444;-63
2022/08/07 06:12:31;;;;;;;9.85;7.60;;;;;;;30.91;37.19;100964.72;5051512;28;20445;-65
2022/08/07 06:14:57;;;;;;;11.68;8.57;;;;;;;30.96;37.24;100970.13;5056598;28;20405;-64
2022/08/07 06:17:24;;;;;;;8.98;7.28;;;;;;;31.91;35.20;100980.59;5060756;28;20397;-64
2022/08/07 06:19:51;;;;;;;10.30;7.47;;;;;;;32.12;34.61;100974.69;5059599;28;20479;-64
2022/08/07 06:22:18;;;;;;;12.40;9.20;;;;;;;31.97;35.13;100978.56;5054931;28;20438;-64
2022/08/07 06:24:44;;;;;;;9.60;7.70;;;;;;;32.17;34.75;100971.81;5061539;28;20410;-64
2022/08/07 06:27:18;;;;;;;10.82;7.38;;;;;;;32.45;34.20;100974.44;5058683;28;20923;-64
2022/08/07 06:29:44;;;;;;;8.82;7.25;;;;;;;32.89;33.74;100976.38;5060489;28;20485;-64
2022/08/07 06:32:09;;;;;;;11.60;7.53;;;;;;;33.66;32.29;100979.00;5060447;28;20407;-64
2022/08/07 06:34:35;;;;;;;8.57;7.45;;;;;;;37.58;26.55;100961.34;5052837;28;20474;-64
2022/08/07 06:37:00;;;;;;;9.77;6.90;;;;;;;39.38;24.39;100958.75;5050899;28;20391;-64
2022/08/07 06:39:26;;;;;;;8.65;6.82;;;;;;;40.00;23.63;100947.88;5050397;28;20392;-65
2022/08/07 06:42:25;;;;;;;7.07;6.28;;;;;;;39.22;24.38;100955.19;5067070;28;20415;-64
2022/08/07 06:44:53;;;;;;;7.18;6.38;;;;;;;37.52;26.44;100962.75;5040252;28;20791;-64
2022/08/07 06:47:19;;;;;;;9.38;6.05;;;;;;;37.43;26.20;100957.34;5060028;28;20897;-64
2022/08/07 06:49:44;;;;;;;6.93;6.23;;;;;;;36.59;27.31;100963.19;5054029;28;20390;-65
2022/08/07 06:52:12;;;;;;;8.77;6.60;;;;;;;35.79;28.41;100963.03;5062316;28;20432;-64
2022/08/07 06:54:39;;;;;;;8.38;6.10;;;;;;;35.19;29.13;100958.66;5055230;28;20401;-64
2022/08/07 06:57:08;;;;;;;8.50;6.50;;;;;;;34.79;30.20;100978.22;5056925;28;20377;-64
2022/08/07 06:59:38;;;;;;;7.03;6.32;;;;;;;34.41;30.55;100968.72;5055758;28;20454;-64
2022/08/07 07:02:07;;;;;;;7.97;5.85;;;;;;;34.09;31.17;100979.06;5057747;28;21715;-64
2022/08/07 07:04:33;;;;;;;6.77;6.03;;;;;;;33.94;31.66;100978.72;5055449;28;20396;-64
2022/08/07 07:07:00;;;;;;;9.67;5.70;;;;;;;33.76;31.81;100975.13;5048653;28;20790;-63
2022/08/07 07:09:28;;;;;;;7.43;6.38;;;;;;;33.81;31.79;100973.03;5060898;28;20470;-64
2022/08/07 07:12:03;;;;;;;8.35;5.90;;;;;;;34.09;31.21;100972.75;5065528;28;20450;-63
2022/08/07 07:14:35;;;;;;;6.43;5.82;;;;;;;34.06;31.31;100976.94;5063960;28;20401;-63
2022/08/07 07:17:07;;;;;;;6.97;6.23;;;;;;;34.42;30.50;100972.28;5055753;28;20882;-64
2022/08/07 07:19:38;;;;;;;10.02;6.05;;;;;;;34.23;30.85;100970.69;5057647;28;20485;-74
2022/08/07 07:22:06;;;;;;;6.75;6.05;;;;;;;34.89;29.83;100969.63;5061967;28;20414;-65
2022/08/07 07:24:31;;;;;;;7.63;6.20;;;;;;;34.63;30.55;100975.97;5065854;28;20452;-65
2022/08/07 07:27:00;;;;;;;9.00;6.17;;;;;;;34.56;30.57;100967.41;5057766;28;20757;-65
2022/08/07 07:29:32;;;;;;;7.28;6.07;;;;;;;34.65;30.30;100976.44;5063741;28;20378;-68
2022/08/07 07:32:02;;;;;;;8.82;6.25;;;;;;;35.40;29.60;100967.81;5058369;28;20397;-64
2022/08/07 07:34:31;;;;;;;6.10;5.50;;;;;;;35.52;29.25;100969.84;5052343;28;20932;-65
2022/08/07 07:36:59;;;;;;;15.50;6.83;;;;;;;35.50;29.55;100972.13;5065824;28;20387;-65
2022/08/07 07:39:26;;;;;;;36.42;12.15;;;;;;;36.07;28.59;100979.06;5064839;28;20757;-64
2022/08/07 07:41:55;;;;;;;33.53;12.73;;;;;;;35.96;28.76;100975.91;5066486;28;20981;-64
2022/08/07 07:44:23;;;;;;;18.25;8.60;;;;;;;35.96;28.61;100977.84;5067988;28;20410;-65
2022/08/07 07:46:50;;;;;;;15.75;7.38;;;;;;;36.07;28.66;100975.50;5066853;28;20395;-64
2022/08/07 07:49:18;;;;;;;14.98;8.32;;;;;;;35.93;28.50;100984.84;5058486;28;20385;-64
2022/08/07 07:51:46;;;;;;;9.82;6.00;;;;;;;35.93;28.72;100984.06;5069371;28;20502;-64
2022/08/07 07:54:13;;;;;;;7.75;5.85;;;;;;;35.91;28.06;100986.34;5071229;28;20383;-64
2022/08/07 07:56:41;;;;;;;9.43;6.22;;;;;;;35.74;28.51;100979.78;5065099;28;20905;-65
2022/08/07 07:59:09;;;;;;;8.60;6.45;;;;;;;35.49;28.75;100978.81;5064198;28;20873;-62
2022/08/07 08:01:40;;;;;;;7.20;6.50;;;;;;;35.14;29.21;100984.44;5060845;28;20425;-64
2022/08/07 08:04:07;;;;;;;7.45;5.90;;;;;;;35.16;28.82;100987.66;5069865;28;20480;-64
2022/08/07 08:06:34;;;;;;;7.93;5.18;;;;;;;35.00;29.15;100981.88;5061355;28;20536;-65
2022/08/07 08:09:06;;;;;;;7.53;6.22;;;;;;;34.85;29.72;100997.00;5056744;28;20477;-67
2022/08/07 08:11:32;;;;;;;6.82;5.20;;;;;;;34.71;29.83;100985.38;5051759;28;20467;-64
2022/08/07 08:13:58;;;;;;;7.53;5.20;;;;;;;34.61;30.12;100982.94;5050508;28;20884;-66
2022/08/07 08:16:30;;;;;;;8.10;6.03;;;;;;;34.57;30.08;100995.72;5051718;28;20495;-65
2022/08/07 08:18:58;;;;;;;7.75;5.82;;;;;;;34.53;30.13;100994.78;5051989;28;20446;-66
2022/08/07 08:27:10;;;;;;;6.13;5.47;;;;;;;34.74;29.70;100998.50;5051958;28;20392;-65
2022/08/07 08:30:01;;;;;;;7.43;5.85;;;;;;;34.75;29.61;101000.09;5052398;28;20381;-65
2022/08/07 08:32:30;;;;;;;6.50;5.78;;;;;;;34.71;29.81;100999.16;5052195;28;20851;-65
2022/08/07 08:34:57;;;;;;;6.18;5.43;;;;;;;34.64;29.84;100996.84;5052028;28;20435;-65
2022/08/07 08:37:25;;;;;;;7.73;5.77;;;;;;;34.75;29.61;100993.78;5052044;28;20389;-65
2022/08/07 08:39:53;;;;;;;6.43;5.82;;;;;;;34.76;29.75;100993.47;5052241;28;20381;-65
2022/08/07 08:42:39;;;;;;;7.20;5.70;;;;;;;34.79;29.48;100992.00;5051939;28;20832;-66
2022/08/07 08:45:36;;;;;;;6.47;5.72;;;;;;;35.19;29.14;100987.03;5052063;28;20909;-65
2022/08/07 08:48:42;;;;;;;6.95;6.13;;;;;;;35.34;28.66;100982.91;5052039;28;20433;-65
2022/08/07 08:51:18;;;;;;;7.03;6.32;;;;;;;35.34;28.61;100982.91;5052032;28;20442;-65
2022/08/07 08:53:53;;;;;;;7.15;6.43;;;;;;;35.40;28.62;100983.53;5051623;28;20902;-65
2022/08/07 08:56:42;;;;;;;7.00;6.40;;;;;;;35.45;28.43;100979.78;5051597;28;20392;-65
2022/08/07 08:59:26;;;;;;;7.78;6.60;;;;;;;35.27;28.79;100968.03;5051695;28;20388;-65
2022/08/07 09:02:33;;;;;;;8.25;7.13;;;;;;;35.12;28.88;100980.41;5051197;28;20425;-66
2022/08/07 09:05:20;;;;;;;7.33;6.67;;;;;;;34.97;29.09;100977.06;5009454;28;20483;-69
2022/08/07 09:08:16;;;;;;;7.70;6.75;;;;;;;34.96;29.16;100972.66;5009442;28;20471;-65
2022/08/07 09:10:55;;;;;;;7.72;6.75;;;;;;;34.93;29.28;100978.81;5044671;28;20756;-65
2022/08/07 09:13:33;;;;;;;7.80;6.97;;;;;;;34.88;29.07;100975.44;5051556;28;20381;-65
2022/08/07 09:16:06;;;;;;;7.60;6.90;;;;;;;34.81;29.08;100976.78;5051621;28;20381;-65
2022/08/07 09:19:07;;;;;;;8.63;6.95;;;;;;;34.57;29.36;100968.22;5051393;28;20455;-65
2022/08/07 09:21:39;;;;;;;7.22;6.53;;;;;;;34.57;29.70;100962.69;5051215;28;20936;-65
2022/08/07 09:24:43;;;;;;;7.28;6.57;;;;;;;34.59;29.78;100965.94;5051345;28;20441;-65
2022/08/07 09:27:24;;;;;;;7.47;6.32;;;;;;;34.46;29.52;100970.50;5041997;28;20418;-65
2022/08/07 09:29:51;;;;;;;7.20;6.55;;;;;;;34.53;29.61;100964.50;5051063;28;20401;-66
2022/08/07 09:32:19;;;;;;;7.23;6.13;;;;;;;34.65;29.55;100965.44;5050691;28;20744;-65
2022/08/07 09:35:07;;;;;;;7.13;6.43;;;;;;;34.74;29.32;100967.41;5051125;28;20455;-64
2022/08/07 09:37:40;;;;;;;7.57;6.70;;;;;;;34.88;29.22;100958.91;5050998;28;20380;-65
2022/08/07 09:40:41;;;;;;;6.65;6.00;;;;;;;35.02;28.75;100954.84;5050720;28;20385;-64
2022/08/07 09:43:25;;;;;;;9.40;6.30;;;;;;;35.23;28.94;100946.66;5050488;28;20460;-64
2022/08/07 09:46:10;;;;;;;8.20;6.05;;;;;;;35.46;28.49;100949.13;5050790;28;20380;-65
2022/08/07 09:48:50;;;;;;;8.93;6.57;;;;;;;35.58;28.41;100940.13;5050529;28;20871;-66
2022/08/07 09:51:44;;;;;;;6.65;5.80;;;;;;;35.73;27.40;100938.78;5048966;28;20483;-64
2022/08/07 09:54:18;;;;;;;7.97;6.43;;;;;;;35.50;27.57;100939.03;5049827;28;20911;-65
2022/08/07 09:57:17;;;;;;;7.05;6.35;;;;;;;35.30;27.62;100932.34;5049743;28;20835;-64
2022/08/07 10:00:13;;;;;;;7.82;6.10;;;;;;;35.44;27.93;100931.28;5050439;28;20376;-65
2022/08/07 10:02:50;;;;;;;8.02;6.30;;;;;;;35.50;27.54;100929.97;5050432;28;20945;-64
2022/08/07 10:05:30;;;;;;;7.60;6.30;;;;;;;35.18;28.52;100922.00;5049132;28;20452;-65
2022/08/07 10:08:08;;;;;;;6.87;6.17;;;;;;;35.09;28.92;100915.72;5048402;28;20409;-65
2022/08/07 10:10:51;;;;;;;6.63;5.93;;;;;;;35.08;28.81;100911.38;5047818;28;20384;-64
2022/08/07 10:13:29;;;;;;;6.95;6.32;;;;;;;35.33;28.21;100917.91;5047137;28;20388;-64
2022/08/07 10:16:48;;;;;;;7.05;6.38;;;;;;;35.55;27.94;100908.53;5049063;28;20384;-64
2022/08/07 10:19:28;;;;;;;6.82;6.10;;;;;;;35.47;27.97;100909.38;5007897;28;20434;-64
2022/08/07 10:22:12;;;;;;;6.80;6.10;;;;;;;35.18;28.14;100913.72;5049679;28;20480;-64
2022/08/07 10:24:55;;;;;;;8.18;6.30;;;;;;;35.04;28.51;100904.88;5049249;28;20373;-65
2022/08/07 10:27:30;;;;;;;6.80;6.15;;;;;;;34.78;29.05;100913.28;5049817;28;20404;-64
2022/08/07 10:30:05;;;;;;;6.80;6.20;;;;;;;34.92;28.69;100910.31;5049775;28;20454;-64
2022/08/07 10:32:58;;;;;;;7.10;6.30;;;;;;;35.01;28.45;100903.63;5050065;28;20890;-64
2022/08/07 10:36:10;;;;;;;6.80;6.10;;;;;;;34.95;27.92;100898.63;5049455;28;20424;-64
2022/08/07 10:38:47;;;;;;;7.45;6.13;;;;;;;34.79;28.68;100892.84;5033878;28;20981;-63
2022/08/07 10:41:39;;;;;;;6.28;5.68;;;;;;;34.79;28.26;100879.91;5049275;28;20417;-63
2022/08/07 10:44:37;;;;;;;6.67;6.00;;;;;;;34.93;28.28;100884.38;5048757;28;20393;-63
2022/08/07 10:47:19;;;;;;;6.85;6.10;;;;;;;34.94;28.00;100875.78;5049149;28;20381;-63
2022/08/07 10:50:07;;;;;;;7.03;6.35;;;;;;;34.91;28.53;100878.38;5049030;28;20392;-64
2022/08/07 10:52:55;;;;;;;6.50;5.90;;;;;;;34.97;27.97;100877.88;5045714;28;20763;-65
2022/08/07 10:55:30;;;;;;;7.85;6.22;;;;;;;34.73;28.43;100870.19;5049674;28;20387;-63
2022/08/07 10:58:12;;;;;;;7.03;6.20;;;;;;;34.70;28.69;100875.56;5049662;28;20391;-62
2022/08/07 11:01:02;;;;;;;7.60;6.30;;;;;;;34.90;28.11;100861.06;5049250;28;20817;-62
2022/08/07 11:03:41;;;;;;;7.65;6.07;;;;;;;35.01;28.08;100856.00;5049311;28;20372;-63
2022/08/07 11:06:20;;;;;;;8.02;6.15;;;;;;;35.10;28.04;100858.69;5049106;28;20388;-62
2022/08/07 11:08:53;;;;;;;6.20;5.60;;;;;;;34.90;28.29;100855.56;5048686;28;20388;-63
2022/08/07 11:11:48;;;;;;;6.15;5.60;;;;;;;34.87;28.50;100847.94;5049285;28;20806;-63
2022/08/07 11:14:39;;;;;;;6.25;5.75;;;;;;;34.87;28.34;100842.44;5048239;28;20918;-64
2022/08/07 11:17:32;;;;;;;6.53;5.93;;;;;;;35.01;28.49;100843.00;5043498;28;20403;-63
2022/08/07 11:20:05;;;;;;;7.20;5.70;;;;;;;34.98;28.21;100851.13;5049511;28;20391;-64
2022/08/07 11:22:34;;;;;;;7.07;5.88;;;;;;;34.85;28.42;100844.72;5049192;28;20420;-63
2022/08/07 11:25:11;;;;;;;6.50;5.90;;;;;;;34.80;28.20;100834.69;5052801;28;20380;-63
2022/08/07 11:27:59;;;;;;;6.50;5.90;;;;;;;34.83;28.27;100825.78;5053353;28;20917;-64
2022/08/07 11:30:31;;;;;;;7.22;5.65;;;;;;;35.12;27.74;100828.84;5053212;28;20442;-62
2022/08/07 11:33:41;;;;;;;6.30;5.70;;;;;;;35.22;27.13;100831.22;5051280;28;20929;-62
2022/08/07 11:36:12;;;;;;;6.68;5.65;;;;;;;35.19;27.13;100837.41;5052224;28;20818;-66
2022/08/07 11:38:59;;;;;;;6.38;5.75;;;;;;;35.13;27.42;100827.69;5051598;28;20377;-63
2022/08/07 11:41:31;;;;;;;6.00;5.40;;;;;;;35.33;26.97;100826.13;5051169;28;20448;-62
2022/08/07 11:44:21;;;;;;;6.50;5.20;;;;;;;35.35;26.99;100821.91;5051355;28;20771;-62
2022/08/07 11:47:19;;;;;;;6.47;5.40;;;;;;;35.36;26.92;100819.97;5052762;28;20485;-63
2022/08/07 11:50:11;;;;;;;6.20;5.60;;;;;;;35.13;27.00;100824.94;5052422;28;20377;-63
2022/08/07 11:52:50;;;;;;;6.13;5.38;;;;;;;35.27;26.80;100820.03;5052610;28;20783;-62
2022/08/07 11:55:32;;;;;;;6.10;5.40;;;;;;;35.27;26.81;100813.72;5052605;28;20416;-63
2022/08/07 11:58:29;;;;;;;5.70;5.10;;;;;;;35.07;27.25;100813.31;5051263;28;20388;-65
2022/08/07 12:01:22;;;;;;;5.70;5.25;;;;;;;35.09;26.93;100815.75;5052182;28;20455;-64
2022/08/07 12:04:20;;;;;;;6.93;6.13;;;;;;;34.86;28.63;100810.53;5052545;28;20381;-63
2022/08/07 12:06:55;;;;;;;7.33;5.70;;;;;;;34.65;29.04;100826.97;5052456;28;20397;-67